Time;durP1;ratioP1;P1;durP2;ratioP2;P2;SDS_P1;SDS_P2;PMS_P1;PMS_P2;Temp;Humidity;BMP_temperature;BMP_pressure;BME280_temperature;BME280_humidity;BME280_pressure;Samples;Min_cycle;Max_cycle;Signal;HPM_P1;HPM_P2
2022/06/14 00:01:02;;;;;;;1.77;1.65;;;;;;;14.90;75.51;99940.47;4977325;28;20137;-66
2022/06/14 00:03:34;;;;;;;1.95;1.20;;;;;;;14.95;75.79;99944.66;4976953;28;20046;-66
2022/06/14 00:06:07;;;;;;;1.23;0.93;;;;;;;15.00;76.40;99942.00;4977277;28;20050;-66
2022/06/14 00:08:36;;;;;;;1.60;1.23;;;;;;;15.06;75.90;99941.94;4976961;28;20071;-66
2022/06/14 00:11:09;;;;;;;0.55;0.55;;;;;;;15.09;75.94;99941.91;4976923;28;20074;-67
2022/06/14 00:13:39;;;;;;;0.85;0.75;;;;;;;15.13;75.82;99943.53;4976820;28;20502;-66
2022/06/14 00:16:08;;;;;;;0.70;0.70;;;;;;;15.21;76.20;99946.88;4976502;28;20058;-67
2022/06/14 00:18:37;;;;;;;2.17;1.95;;;;;;;15.27;75.48;99937.31;4976817;28;20047;-67
2022/06/14 00:21:07;;;;;;;0.63;0.63;;;;;;;15.24;75.44;99942.50;4977307;28;20106;-66
2022/06/14 00:23:36;;;;;;;0.47;0.47;;;;;;;15.15;75.55;99944.38;4977020;28;20173;-66
2022/06/14 00:26:05;;;;;;;0.60;0.60;;;;;;;15.09;75.32;99941.91;4976496;28;20074;-66
2022/06/14 00:28:36;;;;;;;0.70;0.65;;;;;;;14.94;75.44;99952.41;4976879;28;20406;-67
2022/06/14 00:31:08;;;;;;;1.30;1.20;;;;;;;14.81;75.76;99920.88;4976576;28;20065;-66
2022/06/14 00:33:37;;;;;;;0.82;0.80;;;;;;;14.96;75.57;99943.78;4976554;28;20455;-66
2022/06/14 00:36:10;;;;;;;1.38;1.00;;;;;;;14.81;76.07;99946.56;4976681;28;20101;-66
2022/06/14 00:38:39;;;;;;;0.50;0.50;;;;;;;14.71;76.00;99950.13;4976661;28;20066;-66
2022/06/14 00:41:08;;;;;;;0.80;0.80;;;;;;;14.65;76.26;99951.06;4976408;28;20047;-66
2022/06/14 00:43:37;;;;;;;0.65;0.65;;;;;;;14.63;76.52;99950.25;4976607;28;20074;-66
2022/06/14 00:46:16;;;;;;;0.50;0.50;;;;;;;14.66;76.91;99942.47;4976533;28;20486;-66
2022/06/14 00:48:50;;;;;;;1.48;1.30;;;;;;;14.64;76.88;99939.09;4976265;28;20541;-66
2022/06/14 00:51:24;;;;;;;0.40;0.40;;;;;;;14.62;76.34;99947.69;4976208;28;20050;-66
2022/06/14 00:54:01;;;;;;;0.80;0.77;;;;;;;14.55;76.97;99944.34;4976147;28;20054;-66
2022/06/14 00:56:35;;;;;;;0.73;0.73;;;;;;;14.45;76.98;99937.63;4976038;28;20524;-66
2022/06/14 00:59:09;;;;;;;0.60;0.60;;;;;;;14.54;76.80;99947.78;4976281;28;20454;-66
2022/06/14 01:01:42;;;;;;;0.40;0.40;;;;;;;14.48;76.81;99941.88;4975102;28;20042;-66
2022/06/14 01:04:16;;;;;;;0.65;0.65;;;;;;;14.45;76.51;99952.16;4975976;28;20055;-66
2022/06/14 01:06:53;;;;;;;1.25;1.10;;;;;;;14.25;77.04;99943.84;4975834;28;20074;-66
2022/06/14 01:09:27;;;;;;;0.75;0.70;;;;;;;14.11;77.46;99952.53;4975876;28;20081;-66
2022/06/14 01:12:01;;;;;;;0.73;0.65;;;;;;;14.17;77.63;99955.91;4975812;28;20077;-66
2022/06/14 01:14:39;;;;;;;0.52;0.52;;;;;;;14.16;77.56;99951.66;4975785;28;20046;-66
2022/06/14 01:17:11;;;;;;;0.52;0.52;;;;;;;14.19;77.96;99949.88;4975701;28;20125;-66
2022/06/14 01:19:41;;;;;;;0.85;0.85;;;;;;;14.27;77.97;99953.22;4975591;28;20051;-66
2022/06/14 01:22:31;;;;;;;0.73;0.73;;;;;;;14.37;77.54;99944.56;4975938;28;20054;-66
2022/06/14 01:25:03;;;;;;;0.93;0.85;;;;;;;14.43;77.38;99943.63;4975791;28;20398;-66
2022/06/14 01:27:34;;;;;;;1.00;0.80;;;;;;;14.44;77.09;99946.22;4975944;28;20474;-66
2022/06/14 01:30:09;;;;;;;0.85;0.85;;;;;;;14.36;77.10;99940.31;4975510;28;20054;-66
2022/06/14 01:32:42;;;;;;;1.38;1.27;;;;;;;14.19;76.85;99949.88;4975747;28;20494;-66
2022/06/14 01:35:16;;;;;;;1.20;1.10;;;;;;;14.02;77.32;99950.06;4975411;28;20049;-66
2022/06/14 01:37:49;;;;;;;0.47;0.47;;;;;;;13.91;77.30;99958.75;4975297;28;20055;-66
2022/06/14 01:40:21;;;;;;;1.10;1.00;;;;;;;13.82;78.08;99953.69;4975234;28;20074;-66
2022/06/14 01:43:17;;;;;;;0.60;0.50;;;;;;;13.81;78.20;99959.69;4975606;28;20077;-66
2022/06/14 01:45:57;;;;;;;1.70;0.82;;;;;;;13.76;78.49;99958.88;4974440;28;20145;-66
2022/06/14 01:48:31;;;;;;;0.70;0.70;;;;;;;13.69;78.84;99962.38;4975111;28;20043;-66
2022/06/14 01:53:58;;;;;;;0.52;0.52;;;;;;;13.79;79.45;99974.25;4975019;28;20043;-66
2022/06/14 01:56:40;;;;;;;1.00;0.85;;;;;;;13.84;79.64;99978.47;4975380;28;20380;-66
2022/06/14 01:59:19;;;;;;;1.45;1.10;;;;;;;13.90;79.36;99973.28;4974785;28;20050;-66
2022/06/14 02:01:58;;;;;;;0.52;0.52;;;;;;;13.86;79.53;99971.63;4974961;28;20054;-66
2022/06/14 02:04:38;;;;;;;1.42;0.60;;;;;;;13.88;79.09;99974.16;4975215;28;20562;-67
2022/06/14 02:07:21;;;;;;;1.08;1.02;;;;;;;13.90;78.83;99972.41;4974895;28;20517;-66
2022/06/14 02:09:59;;;;;;;1.15;1.02;;;;;;;13.86;79.23;99968.19;4975195;28;20134;-66
2022/06/14 02:12:48;;;;;;;0.57;0.57;;;;;;;13.85;79.39;99969.03;4974606;28;20058;-67
2022/06/14 02:15:25;;;;;;;1.45;0.65;;;;;;;13.80;79.40;99965.66;4974764;28;20130;-66
2022/06/14 02:18:01;;;;;;;0.70;0.70;;;;;;;13.72;79.23;99959.78;4974711;28;20503;-66
2022/06/14 02:20:50;;;;;;;0.80;0.80;;;;;;;13.66;79.40;99962.38;4974968;28;20070;-66
2022/06/14 02:23:21;;;;;;;0.40;0.40;;;;;;;13.59;79.42;99968.44;4974725;28;20043;-66
2022/06/14 02:25:55;;;;;;;0.98;0.90;;;;;;;13.43;79.83;99944.63;4974773;28;20569;-66
2022/06/14 02:28:33;;;;;;;1.65;1.55;;;;;;;13.63;79.73;99972.69;4974934;28;20102;-66
2022/06/14 02:31:08;;;;;;;0.80;0.80;;;;;;;13.75;79.35;99972.59;4957437;28;20042;-67
2022/06/14 02:33:41;;;;;;;1.13;1.05;;;;;;;13.73;79.57;99971.72;4974626;28;20071;-66
2022/06/14 02:36:16;;;;;;;1.00;0.85;;;;;;;13.75;79.25;99970.84;4974605;28;20074;-67
2022/06/14 02:38:51;;;;;;;0.82;0.82;;;;;;;13.79;79.34;99980.25;4974534;28;20051;-67
2022/06/14 02:41:25;;;;;;;2.75;1.23;;;;;;;13.80;79.08;99981.06;4974508;28;20047;-67
2022/06/14 02:44:00;;;;;;;1.33;0.77;;;;;;;13.74;79.02;99986.25;4974586;28;20058;-67
2022/06/14 02:46:33;;;;;;;1.67;1.27;;;;;;;13.79;79.10;99992.22;4974843;28;20046;-66
2022/06/14 02:49:09;;;;;;;1.35;1.25;;;;;;;13.78;78.91;99993.06;4974763;28;20159;-67
2022/06/14 02:51:43;;;;;;;0.73;0.70;;;;;;;13.77;78.56;99987.06;4974934;28;20065;-67
2022/06/14 02:54:16;;;;;;;1.00;0.90;;;;;;;13.78;79.03;99987.94;4974434;28;20109;-67
2022/06/14 02:56:50;;;;;;;0.60;0.60;;;;;;;13.89;78.72;99993.84;4974439;28;20054;-68
2022/06/14 02:59:27;;;;;;;0.73;0.73;;;;;;;13.87;78.71;99998.09;4974272;28;20133;-69
2022/06/14 03:02:01;;;;;;;0.40;0.40;;;;;;;13.86;78.66;99996.41;4974360;28;20513;-69
2022/06/14 03:04:35;;;;;;;1.88;1.40;;;;;;;13.84;78.82;100003.28;4974629;28;20145;-67
2022/06/14 03:07:07;;;;;;;0.85;0.73;;;;;;;13.89;78.72;100006.66;4974348;28;20134;-66
2022/06/14 03:09:38;;;;;;;1.13;1.02;;;;;;;13.88;78.23;99999.81;4974249;28;20051;-67
2022/06/14 03:12:18;;;;;;;0.93;0.90;;;;;;;14.00;78.36;100004.84;4974154;28;20491;-67
2022/06/14 03:15:05;;;;;;;11.95;1.92;;;;;;;14.17;78.36;100008.09;4974259;28;20129;-67
2022/06/14 03:17:49;;;;;;;0.60;0.60;;;;;;;14.28;77.70;100006.25;4974386;28;20570;-67
2022/06/14 03:20:42;;;;;;;1.90;1.42;;;;;;;14.33;77.45;100007.09;4974088;28;20035;-67
2022/06/14 03:23:25;;;;;;;0.50;0.50;;;;;;;14.41;77.21;100007.88;4974123;28;20047;-66
2022/06/14 03:26:01;;;;;;;1.40;1.10;;;;;;;14.41;77.27;100002.75;4977276;28;20066;-67
2022/06/14 03:28:39;;;;;;;1.90;1.00;;;;;;;14.41;77.37;100007.88;4977718;28;20059;-66
2022/06/14 03:31:14;;;;;;;0.80;0.75;;;;;;;14.49;77.70;100011.19;4977624;28;20049;-67
2022/06/14 03:33:48;;;;;;;1.05;0.98;;;;;;;14.59;77.49;100007.66;4978169;28;20494;-67
2022/06/14 03:36:18;;;;;;;0.70;0.70;;;;;;;14.68;77.00;100012.66;4977545;28;20130;-67
2022/06/14 03:38:51;;;;;;;0.98;0.88;;;;;;;14.65;76.89;99997.31;4977492;28;20047;-67
2022/06/14 03:41:24;;;;;;;1.48;1.17;;;;;;;14.86;76.50;100018.47;4977299;28;20070;-67
2022/06/14 03:43:57;;;;;;;4.38;1.42;;;;;;;14.91;76.36;100014.97;4977380;28;20047;-67
2022/06/14 03:46:33;;;;;;;0.73;0.73;;;;;;;14.89;76.33;100011.56;4977394;28;20050;-67
2022/06/14 03:49:06;;;;;;;0.45;0.45;;;;;;;15.00;76.12;100019.13;4977371;28;20057;-67
2022/06/14 03:51:47;;;;;;;0.60;0.60;;;;;;;15.08;76.19;100007.88;4977479;28;20043;-67
2022/06/14 03:54:43;;;;;;;0.68;0.68;;;;;;;15.09;75.89;100009.56;4977231;28;20061;-67
2022/06/14 03:57:32;;;;;;;12.70;1.42;;;;;;;15.21;75.96;100019.69;4973129;28;20131;-67
2022/06/14 04:00:11;;;;;;;1.05;1.00;;;;;;;15.34;75.64;100010.09;4977033;28;20047;-67
2022/06/14 04:02:56;;;;;;;0.57;0.57;;;;;;;15.49;75.43;100004.75;4976896;28;20473;-67
2022/06/14 04:05:36;;;;;;;0.65;0.65;;;;;;;15.60;75.74;100015.72;4977068;28;20049;-67
2022/06/14 04:08:29;;;;;;;0.63;0.63;;;;;;;15.78;75.01;100012.88;4977550;28;20117;-67
2022/06/14 04:11:09;;;;;;;0.70;0.70;;;;;;;15.96;74.69;100009.09;4976932;28;20161;-67
2022/06/14 04:13:44;;;;;;;0.90;0.70;;;;;;;16.08;74.07;100002.03;4976743;28;20050;-67
2022/06/14 04:16:23;;;;;;;1.02;0.98;;;;;;;16.23;73.96;100005.19;4976895;28;20427;-68
2022/06/14 04:19:00;;;;;;;1.42;1.33;;;;;;;16.40;73.41;99998.00;4976846;28;20042;-69
2022/06/14 04:21:36;;;;;;;0.70;0.70;;;;;;;16.54;72.75;100001.19;4976751;28;20458;-67
2022/06/14 04:24:16;;;;;;;0.70;0.70;;;;;;;16.64;71.84;100008.72;4976958;28;20057;-69
2022/06/14 04:26:50;;;;;;;0.50;0.50;;;;;;;16.72;70.79;100003.41;4976703;28;20085;-69
2022/06/14 04:29:26;;;;;;;2.30;1.63;;;;;;;16.71;69.87;100009.44;4976631;28;20142;-69
2022/06/14 04:32:01;;;;;;;1.23;1.00;;;;;;;16.74;69.17;99999.06;4976547;28;20137;-70
2022/06/14 04:34:37;;;;;;;0.70;0.70;;;;;;;16.77;69.27;100004.19;4976523;28;20077;-69
2022/06/14 04:37:12;;;;;;;0.57;0.57;;;;;;;16.65;68.85;99982.06;4976434;28;20112;-69
2022/06/14 04:39:44;;;;;;;0.70;0.70;;;;;;;16.81;68.71;99999.78;4976515;28;20077;-69
2022/06/14 04:42:18;;;;;;;2.67;0.98;;;;;;;16.83;68.80;100008.34;4976317;28;20070;-69
2022/06/14 04:44:54;;;;;;;0.68;0.68;;;;;;;16.67;68.79;99987.19;4976535;28;20089;-70
2022/06/14 04:47:32;;;;;;;0.95;0.80;;;;;;;16.81;68.79;100005.81;4975120;28;20050;-69
2022/06/14 04:50:09;;;;;;;0.82;0.77;;;;;;;16.69;68.52;99988.00;4976860;28;20043;-69
2022/06/14 04:52:40;;;;;;;0.50;0.50;;;;;;;16.78;68.68;100013.59;4976148;28;20051;-70
2022/06/14 04:55:14;;;;;;;0.68;0.68;;;;;;;16.83;68.57;100019.50;4976135;28;20050;-69
2022/06/14 04:57:46;;;;;;;0.70;0.70;;;;;;;16.93;68.67;100015.84;4976073;28;20070;-69
2022/06/14 05:00:18;;;;;;;0.45;0.45;;;;;;;16.99;67.66;100018.28;4976321;28;20474;-69
2022/06/14 05:02:53;;;;;;;0.70;0.70;;;;;;;17.12;67.41;100018.88;4975983;28;20051;-69
2022/06/14 05:05:32;;;;;;;0.70;0.70;;;;;;;17.20;66.67;100019.56;4975939;28;20074;-69
2022/06/14 05:08:08;;;;;;;0.70;0.70;;;;;;;17.22;66.35;100018.66;4975906;28;20094;-68
2022/06/14 05:10:43;;;;;;;0.50;0.50;;;;;;;17.27;66.05;100027.16;4975846;28;20055;-70
2022/06/14 05:13:17;;;;;;;0.50;0.50;;;;;;;17.34;65.78;100018.38;4975771;28;20051;-70
2022/06/14 05:16:08;;;;;;;0.82;0.77;;;;;;;17.47;65.26;100028.44;4975980;28;20046;-70
2022/06/14 05:18:49;;;;;;;0.60;0.60;;;;;;;17.65;64.86;100034.03;4966695;28;20418;-70
2022/06/14 05:21:25;;;;;;;0.80;0.80;;;;;;;17.90;64.23;100023.97;4975556;28;20049;-69
2022/06/14 05:23:55;;;;;;;1.02;1.02;;;;;;;18.07;63.58;100026.94;4975577;28;20058;-69
2022/06/14 05:26:47;;;;;;;0.50;0.50;;;;;;;18.21;62.74;100030.00;4975893;28;20054;-69
2022/06/14 05:29:25;;;;;;;0.60;0.60;;;;;;;18.35;61.88;100035.69;4975505;28;20105;-70
2022/06/14 05:32:08;;;;;;;1.13;1.02;;;;;;;18.49;61.25;100020.69;4975752;28;20046;-69
2022/06/14 05:34:48;;;;;;;0.57;0.57;;;;;;;18.64;60.46;100025.41;4975347;28;20411;-70
2022/06/14 05:37:35;;;;;;;0.55;0.55;;;;;;;18.79;60.01;100039.66;4975451;28;20542;-70
2022/06/14 05:40:22;;;;;;;0.65;0.65;;;;;;;18.88;59.05;100039.44;4975275;28;20176;-69
2022/06/14 05:42:57;;;;;;;0.82;0.80;;;;;;;19.01;58.42;100045.06;4975131;28;20043;-70
2022/06/14 05:45:30;;;;;;;0.45;0.45;;;;;;;19.15;57.96;100048.09;4975120;28;20094;-70
2022/06/14 05:48:06;;;;;;;0.57;0.57;;;;;;;19.26;57.33;100051.22;4975027;28;20567;-69
2022/06/14 05:50:39;;;;;;;0.43;0.43;;;;;;;19.32;56.26;100059.66;4975154;28;20047;-71
2022/06/14 05:53:19;;;;;;;0.70;0.70;;;;;;;19.50;56.09;100060.88;4975103;28;20046;-68
2022/06/14 05:55:52;;;;;;;0.73;0.73;;;;;;;19.61;55.54;100063.09;4974980;28;20137;-70
2022/06/14 05:58:26;;;;;;;0.68;0.68;;;;;;;19.62;54.83;100055.31;4975024;28;20042;-69
2022/06/14 06:00:59;;;;;;;0.50;0.50;;;;;;;19.64;54.44;100052.66;4974952;28;20070;-70
2022/06/14 06:03:43;;;;;;;1.48;1.10;;;;;;;19.73;54.56;100057.53;4974951;28;20129;-67
2022/06/14 06:06:17;;;;;;;0.45;0.45;;;;;;;19.80;54.25;100070.25;4974968;28;20058;-67
2022/06/14 06:08:53;;;;;;;0.93;0.80;;;;;;;19.94;53.75;100068.06;4974875;28;20105;-70
2022/06/14 06:11:26;;;;;;;0.70;0.70;;;;;;;20.11;53.51;100074.47;4974837;28;20074;-70
2022/06/14 06:14:01;;;;;;;2.17;1.35;;;;;;;20.15;53.40;100070.84;4974750;28;20125;-70
2022/06/14 06:16:34;;;;;;;0.73;0.73;;;;;;;20.24;52.83;100070.56;4974873;28;20078;-69
2022/06/14 06:19:09;;;;;;;0.57;0.57;;;;;;;20.34;52.18;100069.38;4975023;28;20138;-67
2022/06/14 06:21:42;;;;;;;0.60;0.60;;;;;;;20.32;51.73;100068.59;4974753;28;20046;-68
2022/06/14 06:24:18;;;;;;;0.50;0.50;;;;;;;20.36;51.64;100067.56;4974695;28;20053;-69
2022/06/14 06:26:53;;;;;;;0.85;0.85;;;;;;;20.43;51.69;100076.81;4974673;28;20050;-70
2022/06/14 06:29:42;;;;;;;1.45;1.05;;;;;;;20.46;50.93;100081.91;4975002;28;20101;-70
2022/06/14 06:32:11;;;;;;;0.70;0.70;;;;;;;20.46;50.54;100081.91;4974536;28;20498;-69
2022/06/14 06:34:42;;;;;;;0.50;0.50;;;;;;;20.51;51.08;100074.81;4975575;28;20486;-70
2022/06/14 06:37:17;;;;;;;0.50;0.50;;;;;;;20.52;50.62;100076.50;4974774;28;20049;-70
2022/06/14 06:39:50;;;;;;;0.40;0.40;;;;;;;20.52;50.17;100079.09;4975219;28;20081;-70
2022/06/14 06:42:33;;;;;;;0.50;0.50;;;;;;;20.52;49.93;100086.88;4974963;28;20047;-69
2022/06/14 06:45:06;;;;;;;0.50;0.50;;;;;;;20.52;50.32;100082.53;4975069;28;20122;-70
2022/06/14 06:47:39;;;;;;;0.43;0.43;;;;;;;20.59;50.25;100093.53;4974186;28;20509;-70
2022/06/14 06:50:18;;;;;;;0.70;0.70;;;;;;;20.63;49.50;100090.81;4974719;28;20078;-71
2022/06/14 06:52:55;;;;;;;0.68;0.68;;;;;;;20.44;49.14;100068.97;4974432;28;20069;-70
2022/06/14 06:55:34;;;;;;;0.85;0.77;;;;;;;20.62;49.40;100090.84;4974417;28;20057;-69
2022/06/14 06:58:09;;;;;;;0.93;0.93;;;;;;;20.47;49.44;100068.88;4972870;28;20178;-69
2022/06/14 07:00:40;;;;;;;0.73;0.70;;;;;;;20.66;49.72;100089.84;4977267;28;20134;-69
2022/06/14 07:03:18;;;;;;;0.68;0.65;;;;;;;20.68;49.68;100098.44;4978236;28;20165;-68
2022/06/14 07:06:00;;;;;;;0.68;0.50;;;;;;;20.59;49.31;100085.75;4960985;28;20054;-69
2022/06/14 07:08:39;;;;;;;0.47;0.47;;;;;;;20.83;49.57;100105.66;4978617;28;20059;-70
2022/06/14 07:11:17;;;;;;;0.82;0.70;;;;;;;21.03;50.00;100100.59;4978285;28;20150;-71
2022/06/14 07:13:53;;;;;;;0.40;0.40;;;;;;;21.03;48.87;100110.13;4977185;28;20154;-70
2022/06/14 07:16:28;;;;;;;0.55;0.55;;;;;;;21.07;48.82;100104.81;4977610;28;20086;-70
2022/06/14 07:19:14;;;;;;;0.98;0.90;;;;;;;21.04;49.10;100084.09;4977784;28;20134;-70
2022/06/14 07:21:49;;;;;;;0.50;0.50;;;;;;;21.29;48.78;100108.31;4977641;28;20035;-70
2022/06/14 07:24:23;;;;;;;0.50;0.50;;;;;;;21.35;48.25;100108.06;4977680;28;20142;-69
2022/06/14 07:26:58;;;;;;;0.88;0.88;;;;;;;21.45;47.79;100105.97;4978032;28;20065;-70
2022/06/14 07:29:35;;;;;;;0.70;0.70;;;;;;;21.37;47.36;100110.63;4977711;28;20122;-68
2022/06/14 07:32:10;;;;;;;0.50;0.50;;;;;;;21.24;47.15;100105.03;4976837;28;20051;-70
2022/06/14 07:34:44;;;;;;;0.70;0.60;;;;;;;21.26;47.40;100098.03;4977662;28;20046;-69
2022/06/14 07:37:19;;;;;;;0.63;0.63;;;;;;;21.34;47.23;100105.53;4977436;28;20046;-69
2022/06/14 07:39:57;;;;;;;0.60;0.60;;;;;;;21.39;47.05;100095.81;4977495;28;20102;-69
2022/06/14 07:42:36;;;;;;;0.57;0.57;;;;;;;21.50;46.90;100103.22;4977390;28;20061;-68
2022/06/14 07:45:08;;;;;;;1.13;0.85;;;;;;;21.57;46.73;100107.25;4977716;28;20137;-70
2022/06/14 07:47:48;;;;;;;0.52;0.52;;;;;;;21.75;46.48;100107.38;4976269;28;20557;-71
2022/06/14 07:50:22;;;;;;;0.50;0.50;;;;;;;21.89;46.27;100107.72;4977392;28;20435;-70
2022/06/14 07:52:59;;;;;;;0.70;0.70;;;;;;;21.94;45.66;100112.72;4976519;28;20101;-69
2022/06/14 07:55:34;;;;;;;0.43;0.43;;;;;;;21.81;45.25;100116.69;4976500;28;20050;-69
2022/06/14 07:58:11;;;;;;;0.75;0.75;;;;;;;21.78;44.90;100122.00;4977478;28;20494;-70
2022/06/14 08:03:30;;;;;;;0.50;0.50;;;;;;;21.97;44.90;100118.66;4977194;28;20486;-69
2022/06/14 08:06:03;;;;;;;0.55;0.55;;;;;;;22.04;44.43;100111.44;4966626;28;20376;-68
2022/06/14 08:08:36;;;;;;;0.63;0.63;;;;;;;22.26;44.87;100120.06;4981009;28;20145;-69
2022/06/14 08:11:10;;;;;;;1.25;0.93;;;;;;;22.23;43.92;100119.34;4975886;28;20047;-70
2022/06/14 08:13:44;;;;;;;0.47;0.47;;;;;;;22.18;43.75;100119.53;4977013;28;20565;-70
2022/06/14 08:16:14;;;;;;;0.60;0.60;;;;;;;22.24;43.29;100116.69;4976699;28;20051;-70
2022/06/14 08:18:51;;;;;;;2.50;2.30;;;;;;;22.28;43.08;100113.03;4976724;28;20506;-70
2022/06/14 08:21:27;;;;;;;0.65;0.65;;;;;;;22.36;42.85;100118.75;4977067;28;20413;-70
2022/06/14 08:24:03;;;;;;;0.85;0.70;;;;;;;22.40;43.06;100117.72;4976640;28;20043;-70
2022/06/14 08:26:37;;;;;;;0.50;0.50;;;;;;;22.54;43.30;100118.00;4976726;28;20557;-70
2022/06/14 08:29:13;;;;;;;0.50;0.50;;;;;;;22.43;42.66;100121.97;4971877;28;20054;-66
2022/06/14 08:31:47;;;;;;;1.48;0.93;;;;;;;22.18;42.17;100122.13;4975935;28;20053;-70
2022/06/14 08:34:31;;;;;;;1.75;0.85;;;;;;;22.31;42.43;100114.69;4971880;28;20409;-70
2022/06/14 08:37:05;;;;;;;0.70;0.70;;;;;;;22.54;42.35;100115.41;4976289;28;20126;-70
2022/06/14 08:39:38;;;;;;;0.55;0.55;;;;;;;22.73;42.14;100114.63;4976740;28;20085;-69
2022/06/14 08:42:15;;;;;;;0.40;0.40;;;;;;;22.75;41.76;100105.00;4976263;28;20100;-70
2022/06/14 08:44:56;;;;;;;0.82;0.82;;;;;;;22.52;41.91;100101.59;4976001;28;20051;-68
2022/06/14 08:47:39;;;;;;;0.60;0.60;;;;;;;22.26;42.55;100109.66;4976173;28;20566;-68
2022/06/14 08:50:32;;;;;;;1.05;0.95;;;;;;;21.99;43.16;100116.00;4976595;28;20047;-69
2022/06/14 08:53:22;;;;;;;0.50;0.50;;;;;;;21.76;43.41;100110.84;4974236;28;20047;-68
2022/06/14 08:56:09;;;;;;;0.60;0.60;;;;;;;21.76;43.09;100113.44;4974887;28;20039;-69
2022/06/14 08:59:09;;;;;;;0.50;0.50;;;;;;;22.09;42.83;100111.25;4976233;28;20394;-70
2022/06/14 09:02:05;;;;;;;0.40;0.40;;;;;;;22.18;42.34;100106.53;4976299;28;20051;-70
2022/06/14 09:05:01;;;;;;;0.95;0.82;;;;;;;22.35;42.34;100108.41;4958952;28;20397;-70
2022/06/14 09:08:00;;;;;;;0.63;0.63;;;;;;;22.28;42.73;100087.03;4975896;28;20047;-68
2022/06/14 09:10:47;;;;;;;0.52;0.52;;;;;;;22.32;42.32;100104.19;4974602;28;20454;-67
2022/06/14 09:13:53;;;;;;;0.43;0.43;;;;;;;22.28;42.19;100101.78;4975608;28;20050;-70
2022/06/14 09:16:53;;;;;;;0.40;0.40;;;;;;;22.54;42.99;100099.78;4974651;28;20059;-71
2022/06/14 09:19:30;;;;;;;0.60;0.60;;;;;;;22.54;43.33;100094.56;4975239;28;20133;-70
2022/06/14 09:22:09;;;;;;;0.52;0.52;;;;;;;22.44;43.31;100093.28;4976222;28;20155;-71
2022/06/14 09:24:57;;;;;;;0.65;0.65;;;;;;;22.60;43.76;100094.28;4981156;28;20506;-71
2022/06/14 09:28:02;;;;;;;0.70;0.70;;;;;;;22.52;42.55;100096.41;4984141;28;20043;-70
2022/06/14 09:31:03;;;;;;;0.60;0.60;;;;;;;22.44;43.02;100085.47;4966107;28;20125;-70
2022/06/14 09:33:54;;;;;;;0.52;0.52;;;;;;;22.37;42.76;100081.44;4990739;28;20097;-70
2022/06/14 09:36:47;;;;;;;0.38;0.38;;;;;;;22.30;41.83;100082.59;4976301;28;20139;-70
2022/06/14 09:39:40;;;;;;;0.50;0.50;;;;;;;22.13;40.86;100066.84;4967560;28;20039;-71
2022/06/14 09:42:41;;;;;;;0.70;0.70;;;;;;;21.79;41.67;100069.97;4970865;28;20042;-65
2022/06/14 09:45:44;;;;;;;0.70;0.63;;;;;;;21.76;44.24;100077.06;4956123;28;20047;-69
2022/06/14 09:48:34;;;;;;;0.68;0.68;;;;;;;21.82;44.19;100081.97;4975220;28;20046;-70
2022/06/14 09:51:36;;;;;;;0.70;0.70;;;;;;;22.29;45.11;100078.31;4975281;28;20039;-70
2022/06/14 09:54:22;;;;;;;1.02;0.70;;;;;;;22.66;44.60;100083.66;4975167;28;20039;-71
2022/06/14 09:57:22;;;;;;;0.40;0.40;;;;;;;22.79;42.16;100078.78;4958101;28;20145;-71
2022/06/14 10:00:22;;;;;;;0.40;0.40;;;;;;;22.73;40.48;100086.00;4972264;28;20077;-70
2022/06/14 10:03:24;;;;;;;0.65;0.65;;;;;;;22.60;41.81;100083.88;4948550;28;20103;-71
2022/06/14 10:06:22;;;;;;;0.60;0.60;;;;;;;22.50;41.46;100087.81;4956285;28;20039;-71
2022/06/14 10:09:05;;;;;;;0.43;0.43;;;;;;;22.59;42.02;100082.22;4964994;28;20035;-71
2022/06/14 10:11:47;;;;;;;0.40;0.40;;;;;;;22.72;42.77;100081.72;4965087;28;20047;-71
2022/06/14 10:14:32;;;;;;;0.70;0.60;;;;;;;22.75;41.29;100071.19;4965476;28;20106;-70
2022/06/14 10:17:33;;;;;;;0.55;0.55;;;;;;;22.99;40.43;100075.25;4965630;28;20061;-71
2022/06/14 10:20:25;;;;;;;0.50;0.50;;;;;;;23.16;39.67;100083.16;4965246;28;20093;-72
2022/06/14 10:23:11;;;;;;;0.45;0.45;;;;;;;23.44;41.23;100078.41;4964897;28;20039;-71
2022/06/14 10:28:44;;;;;;;0.80;0.80;;;;;;;23.41;39.54;100073.34;4973892;28;20134;-71
2022/06/14 10:31:30;;;;;;;0.47;0.47;;;;;;;23.38;39.16;100080.44;4974461;28;20051;-69
2022/06/14 10:34:03;;;;;;;0.70;0.70;;;;;;;23.15;38.67;100076.28;4977633;28;20070;-68
2022/06/14 10:36:45;;;;;;;0.80;0.80;;;;;;;22.94;38.35;100077.25;4979955;28;20086;-70
2022/06/14 10:39:42;;;;;;;0.70;0.70;;;;;;;22.98;39.50;100073.59;4981330;28;20434;-70
2022/06/14 10:42:22;;;;;;;0.93;0.85;;;;;;;22.95;38.90;100071.97;4980884;28;20133;-70
2022/06/14 10:44:59;;;;;;;0.60;0.60;;;;;;;23.07;38.47;100070.56;4982542;28;20404;-71
2022/06/14 10:47:43;;;;;;;0.77;0.77;;;;;;;23.20;38.06;100079.53;4988893;28;20054;-71
2022/06/14 10:50:28;;;;;;;0.70;0.70;;;;;;;23.26;38.60;100079.22;4967118;28;20117;-71
2022/06/14 10:53:09;;;;;;;0.60;0.60;;;;;;;23.12;38.94;100071.19;4986508;28;20074;-71
2022/06/14 10:56:04;;;;;;;0.43;0.43;;;;;;;23.01;38.86;100076.06;4990968;28;20042;-71
2022/06/14 10:58:51;;;;;;;3.70;2.33;;;;;;;22.93;39.93;100057.31;4970585;28;20050;-72
2022/06/14 11:01:44;;;;;;;0.80;0.63;;;;;;;23.24;40.06;100075.84;4980757;28;20065;-71
2022/06/14 11:04:19;;;;;;;0.50;0.50;;;;;;;23.25;39.82;100072.34;4962810;28;20054;-71
2022/06/14 11:07:24;;;;;;;0.85;0.60;;;;;;;23.26;39.38;100074.00;4989905;28;20045;-71
2022/06/14 11:10:19;;;;;;;1.20;0.82;;;;;;;23.49;40.50;100076.41;4975377;28;20042;-72
2022/06/14 11:12:57;;;;;;;0.50;0.50;;;;;;;23.69;41.00;100068.50;4989453;28;20047;-71
2022/06/14 11:15:35;;;;;;;0.70;0.70;;;;;;;23.88;39.88;100066.69;4989149;28;20038;-71
2022/06/14 11:18:37;;;;;;;0.50;0.50;;;;;;;23.95;39.05;100065.47;4988226;28;20443;-70
2022/06/14 11:21:22;;;;;;;0.85;0.85;;;;;;;24.02;37.51;100066.00;4972118;28;20039;-70
2022/06/14 11:23:59;;;;;;;0.60;0.60;;;;;;;24.20;37.77;100056.44;4980718;28;20407;-71
2022/06/14 11:26:33;;;;;;;0.63;0.63;;;;;;;24.38;37.56;100065.94;4980632;28;20098;-71
2022/06/14 11:29:08;;;;;;;0.40;0.40;;;;;;;24.43;37.04;100064.81;4980560;28;20047;-69
2022/06/14 11:31:46;;;;;;;0.50;0.50;;;;;;;24.49;36.16;100066.25;4983562;28;20038;-70
2022/06/14 11:34:36;;;;;;;0.50;0.50;;;;;;;24.57;36.96;100064.94;4968652;28;20086;-71
2022/06/14 11:37:26;;;;;;;0.50;0.50;;;;;;;24.72;37.27;100062.44;4987450;28;20085;-71
2022/06/14 11:39:59;;;;;;;0.82;0.70;;;;;;;24.80;36.36;100065.53;4982008;28;20134;-71
2022/06/14 11:42:32;;;;;;;0.82;0.82;;;;;;;24.96;36.05;100059.41;4985659;28;20113;-70
2022/06/14 11:45:20;;;;;;;0.40;0.40;;;;;;;25.15;36.04;100057.50;4988926;28;20569;-72
2022/06/14 11:47:57;;;;;;;0.82;0.80;;;;;;;25.17;36.07;100060.84;4986783;28;20066;-67
2022/06/14 11:50:36;;;;;;;1.13;0.70;;;;;;;25.22;36.35;100069.28;4981256;28;20528;-71
2022/06/14 11:53:18;;;;;;;0.40;0.40;;;;;;;25.29;36.68;100059.34;4986019;28;20125;-65
2022/06/14 11:55:53;;;;;;;1.25;0.70;;;;;;;25.12;36.18;100052.44;4985240;28;20077;-66
2022/06/14 11:58:39;;;;;;;0.73;0.73;;;;;;;25.02;35.82;100048.66;4981037;28;20049;-70
2022/06/14 12:01:21;;;;;;;0.50;0.50;;;;;;;25.04;35.53;100048.56;4957803;28;20043;-68
2022/06/14 12:04:25;;;;;;;0.60;0.60;;;;;;;25.00;35.47;100050.47;4957744;29;20110;-70
2022/06/14 12:07:01;;;;;;;0.70;0.70;;;;;;;25.12;35.42;100041.97;4958073;28;20470;-69
2022/06/14 12:09:57;;;;;;;0.95;0.80;;;;;;;25.18;36.36;100044.25;4957752;29;20098;-70
2022/06/14 12:12:34;;;;;;;0.60;0.60;;;;;;;25.20;35.44;100050.25;4974042;28;20042;-71
2022/06/14 12:15:06;;;;;;;0.50;0.50;;;;;;;25.52;35.99;100042.44;4980630;28;20513;-71
2022/06/14 12:17:42;;;;;;;0.43;0.43;;;;;;;25.57;33.67;100043.00;4976518;28;20063;-70
2022/06/14 12:20:13;;;;;;;1.20;1.00;;;;;;;25.38;33.13;100031.88;4976634;28;20055;-70
2022/06/14 12:22:55;;;;;;;1.13;1.02;;;;;;;25.64;34.40;100039.13;4977090;28;20498;-70
2022/06/14 12:28:24;;;;;;;0.50;0.50;;;;;;;25.38;33.25;100040.56;4976645;28;20051;-71
2022/06/14 12:31:00;;;;;;;0.52;0.52;;;;;;;25.45;32.91;100035.84;4976500;28;20059;-70
2022/06/14 12:33:33;;;;;;;0.73;0.73;;;;;;;25.51;33.53;100040.72;4976819;28;20495;-69